sensor_id;sensor_type;location;lat;lon;timestamp;pressure;altitude;pressure_sealevel;temperature
18161;BMP280;9205;52.032;4.314;2023-04-03T00:00:55;103061.41;;;7.50
18161;BMP280;9205;52.032;4.314;2023-04-03T00:03:23;103068.09;;;7.48
18161;BMP280;9205;52.032;4.314;2023-04-03T00:05:51;103070.66;;;7.49
18161;BMP280;9205;52.032;4.314;2023-04-03T00:08:19;103075.59;;;7.45
18161;BMP280;9205;52.032;4.314;2023-04-03T00:10:47;103072.94;;;7.40
18161;BMP280;9205;52.032;4.314;2023-04-03T00:13:15;103068.72;;;7.39
18161;BMP280;9205;52.032;4.314;2023-04-03T00:15:42;103072.91;;;7.39
18161;BMP280;9205;52.032;4.314;2023-04-03T00:18:09;103069.47;;;7.37
18161;BMP280;9205;52.032;4.314;2023-04-03T00:20:37;103070.00;;;7.25
18161;BMP280;9205;52.032;4.314;2023-04-03T00:23:05;103076.88;;;7.29
18161;BMP280;9205;52.032;4.314;2023-04-03T00:25:34;103076.13;;;7.33
18161;BMP280;9205;52.032;4.314;2023-04-03T00:28:02;103075.06;;;7.25
18161;BMP280;9205;52.032;4.314;2023-04-03T00:30:30;103069.84;;;7.19
18161;BMP280;9205;52.032;4.314;2023-04-03T00:32:58;103072.41;;;7.21
18161;BMP280;9205;52.032;4.314;2023-04-03T00:35:27;103071.56;;;7.20
18161;BMP280;9205;52.032;4.314;2023-04-03T00:37:55;103075.00;;;7.22
18161;BMP280;9205;52.032;4.314;2023-04-03T00:40:26;103072.47;;;7.22
18161;BMP280;9205;52.032;4.314;2023-04-03T00:42:57;103069.97;;;7.24
18161;BMP280;9205;52.032;4.314;2023-04-03T00:45:34;103078.50;;;7.27
18161;BMP280;9205;52.032;4.314;2023-04-03T00:48:05;103074.84;;;7.16
18161;BMP280;9205;52.032;4.314;2023-04-03T00:50:37;103073.97;;;7.16
18161;BMP280;9205;52.032;4.314;2023-04-03T00:53:11;103081.34;;;7.08
18161;BMP280;9205;52.032;4.314;2023-04-03T00:55:43;103079.69;;;7.10
18161;BMP280;9205;52.032;4.314;2023-04-03T00:58:12;103085.47;;;7.05
18161;BMP280;9205;52.032;4.314;2023-04-03T01:00:43;103088.88;;;7.07
18161;BMP280;9205;52.032;4.314;2023-04-03T01:03:13;103083.81;;;7.07
18161;BMP280;9205;52.032;4.314;2023-04-03T01:05:41;103086.22;;;7.02
18161;BMP280;9205;52.032;4.314;2023-04-03T01:08:08;103093.75;;;6.99
18161;BMP280;9205;52.032;4.314;2023-04-03T01:10:35;103091.25;;;7.01
18161;BMP280;9205;52.032;4.314;2023-04-03T01:13:23;103093.50;;;6.92
18161;BMP280;9205;52.032;4.314;2023-04-03T01:15:52;103101.16;;;6.94
18161;BMP280;9205;52.032;4.314;2023-04-03T01:18:19;103099.34;;;6.90
18161;BMP280;9205;52.032;4.314;2023-04-03T01:26:55;103099.25;;;6.87
18161;BMP280;9205;52.032;4.314;2023-04-03T01:29:24;103099.25;;;6.87
18161;BMP280;9205;52.032;4.314;2023-04-03T01:31:56;103094.97;;;6.84
18161;BMP280;9205;52.032;4.314;2023-04-03T01:34:24;103092.44;;;6.84
18161;BMP280;9205;52.032;4.314;2023-04-03T01:36:53;103095.63;;;6.79
18161;BMP280;9205;52.032;4.314;2023-04-03T01:39:21;103097.28;;;6.77
18161;BMP280;9205;52.032;4.314;2023-04-03T01:41:50;103101.28;;;6.70
18161;BMP280;9205;52.032;4.314;2023-04-03T01:44:23;103092.09;;;6.72
18161;BMP280;9205;52.032;4.314;2023-04-03T01:46:53;103099.56;;;6.69
18161;BMP280;9205;52.032;4.314;2023-04-03T01:49:22;103091.84;;;6.65
18161;BMP280;9205;52.032;4.314;2023-04-03T01:51:49;103093.22;;;6.54
18161;BMP280;9205;52.032;4.314;2023-04-03T01:54:16;103104.28;;;6.57
18161;BMP280;9205;52.032;4.314;2023-04-03T01:56:43;103097.53;;;6.58
18161;BMP280;9205;52.032;4.314;2023-04-03T01:59:11;103102.69;;;6.61
18161;BMP280;9205;52.032;4.314;2023-04-03T02:01:38;103100.97;;;6.60
18161;BMP280;9205;52.032;4.314;2023-04-03T02:04:07;103104.19;;;6.56
18161;BMP280;9205;52.032;4.314;2023-04-03T02:06:34;103101.75;;;6.57
18161;BMP280;9205;52.032;4.314;2023-04-03T02:09:02;103098.97;;;6.50
18161;BMP280;9205;52.032;4.314;2023-04-03T02:11:30;103114.28;;;6.54
18161;BMP280;9205;52.032;4.314;2023-04-03T02:13:57;103109.09;;;6.50
18161;BMP280;9205;52.032;4.314;2023-04-03T02:16:24;103119.25;;;6.51
18161;BMP280;9205;52.032;4.314;2023-04-03T02:18:52;103120.09;;;6.52
18161;BMP280;9205;52.032;4.314;2023-04-03T02:21:20;103118.28;;;6.48
18161;BMP280;9205;52.032;4.314;2023-04-03T02:23:47;103126.69;;;6.47
18161;BMP280;9205;52.032;4.314;2023-04-03T02:26:16;103120.72;;;6.45
18161;BMP280;9205;52.032;4.314;2023-04-03T02:28:45;103127.34;;;6.41
18161;BMP280;9205;52.032;4.314;2023-04-03T02:31:13;103121.34;;;6.38
18161;BMP280;9205;52.032;4.314;2023-04-03T02:33:42;103127.25;;;6.38
18161;BMP280;9205;52.032;4.314;2023-04-03T02:36:12;103133.97;;;6.38
18161;BMP280;9205;52.032;4.314;2023-04-03T02:38:44;103133.88;;;6.35
18161;BMP280;9205;52.032;4.314;2023-04-03T02:41:12;103128.81;;;6.35
18161;BMP280;9205;52.032;4.314;2023-04-03T02:43:39;103132.81;;;6.28
18161;BMP280;9205;52.032;4.314;2023-04-03T02:46:07;103132.16;;;6.34
18161;BMP280;9205;52.032;4.314;2023-04-03T02:48:36;103130.44;;;6.33
18161;BMP280;9205;52.032;4.314;2023-04-03T02:51:03;103130.28;;;6.28
18161;BMP280;9205;52.032;4.314;2023-04-03T02:53:31;103131.84;;;6.25
18161;BMP280;9205;52.032;4.314;2023-04-03T02:56:04;103125.84;;;6.21
18161;BMP280;9205;52.032;4.314;2023-04-03T02:58:32;103132.47;;;6.18
18161;BMP280;9205;52.032;4.314;2023-04-03T03:01:00;103124.09;;;6.19
18161;BMP280;9205;52.032;4.314;2023-04-03T03:03:27;103128.47;;;6.24
18161;BMP280;9205;52.032;4.314;2023-04-03T03:06:03;103134.19;;;6.19
18161;BMP280;9205;52.032;4.314;2023-04-03T03:08:30;103129.88;;;6.15
18161;BMP280;9205;52.032;4.314;2023-04-03T03:10:58;103122.94;;;6.10
18161;BMP280;9205;52.032;4.314;2023-04-03T03:13:26;103132.28;;;6.12
18161;BMP280;9205;52.032;4.314;2023-04-03T03:15:54;103141.41;;;6.09
18161;BMP280;9205;52.032;4.314;2023-04-03T03:18:21;103128.69;;;6.06
18161;BMP280;9205;52.032;4.314;2023-04-03T03:20:52;103126.78;;;5.99
18161;BMP280;9205;52.032;4.314;2023-04-03T03:23:21;103134.31;;;5.97
18161;BMP280;9205;52.032;4.314;2023-04-03T03:25:49;103132.63;;;5.98
18161;BMP280;9205;52.032;4.314;2023-04-03T03:28:16;103130.06;;;5.96
18161;BMP280;9205;52.032;4.314;2023-04-03T03:30:44;103140.16;;;5.96
18161;BMP280;9205;52.032;4.314;2023-04-03T03:33:12;103137.41;;;5.89
18161;BMP280;9205;52.032;4.314;2023-04-03T03:35:39;103140.66;;;5.86
18161;BMP280;9205;52.032;4.314;2023-04-03T03:38:07;103136.47;;;5.87
18161;BMP280;9205;52.032;4.314;2023-04-03T03:40:35;103143.94;;;5.84
18161;BMP280;9205;52.032;4.314;2023-04-03T03:43:03;103143.09;;;5.83
18161;BMP280;9205;52.032;4.314;2023-04-03T03:45:30;103147.97;;;5.79
18161;BMP280;9205;52.032;4.314;2023-04-03T03:47:59;103147.25;;;5.83
18161;BMP280;9205;52.032;4.314;2023-04-03T03:50:26;103146.56;;;5.87
18161;BMP280;9205;52.032;4.314;2023-04-03T03:52:54;103143.94;;;5.84
18161;BMP280;9205;52.032;4.314;2023-04-03T03:55:21;103147.41;;;5.87
18161;BMP280;9205;52.032;4.314;2023-04-03T03:57:52;103147.94;;;5.77
18161;BMP280;9205;52.032;4.314;2023-04-03T04:00:20;103151.13;;;5.73
18161;BMP280;9205;52.032;4.314;2023-04-03T04:02:53;103153.00;;;5.77
18161;BMP280;9205;52.032;4.314;2023-04-03T04:05:24;103145.31;;;5.76
18161;BMP280;9205;52.032;4.314;2023-04-03T04:07:53;103151.03;;;5.70
18161;BMP280;9205;52.032;4.314;2023-04-03T04:10:20;103143.47;;;5.70
18161;BMP280;9205;52.032;4.314;2023-04-03T04:12:47;103141.84;;;5.72
18161;BMP280;9205;52.032;4.314;2023-04-03T04:15:19;103153.63;;;5.73
18161;BMP280;9205;52.032;4.314;2023-04-03T04:17:48;103149.50;;;5.75
18161;BMP280;9205;52.032;4.314;2023-04-03T04:20:15;103145.28;;;5.74
18161;BMP280;9205;52.032;4.314;2023-04-03T04:22:44;103150.97;;;5.69
18161;BMP280;9205;52.032;4.314;2023-04-03T04:25:11;103148.44;;;5.69
18161;BMP280;9205;52.032;4.314;2023-04-03T04:27:39;103155.75;;;5.61
18161;BMP280;9205;52.032;4.314;2023-04-03T04:30:08;103154.09;;;5.62
18161;BMP280;9205;52.032;4.314;2023-04-03T04:32:37;103152.28;;;5.58
18161;BMP280;9205;52.032;4.314;2023-04-03T04:35:05;103156.47;;;5.59
18161;BMP280;9205;52.032;4.314;2023-04-03T04:37:35;103159.88;;;5.59
18161;BMP280;9205;52.032;4.314;2023-04-03T04:40:05;103157.16;;;5.53
18161;BMP280;9205;52.032;4.314;2023-04-03T04:42:33;103149.75;;;5.58
18161;BMP280;9205;52.032;4.314;2023-04-03T04:45:00;103153.25;;;5.61
18161;BMP280;9205;52.032;4.314;2023-04-03T04:47:29;103156.59;;;5.62
18161;BMP280;9205;52.032;4.314;2023-04-03T04:49:56;103157.38;;;5.59
18161;BMP280;9205;52.032;4.314;2023-04-03T04:52:24;103165.84;;;5.61
18161;BMP280;9205;52.032;4.314;2023-04-03T04:54:51;103169.81;;;5.55
18161;BMP280;9205;52.032;4.314;2023-04-03T04:57:19;103172.97;;;5.49
18161;BMP280;9205;52.032;4.314;2023-04-03T04:59:47;103170.56;;;5.52
18161;BMP280;9205;52.032;4.314;2023-04-03T05:02:14;103177.22;;;5.50
18161;BMP280;9205;52.032;4.314;2023-04-03T05:04:43;103179.72;;;5.50
18161;BMP280;9205;52.032;4.314;2023-04-03T05:07:16;103164.59;;;5.50
18161;BMP280;9205;52.032;4.314;2023-04-03T05:09:43;103178.13;;;5.52
18161;BMP280;9205;52.032;4.314;2023-04-03T05:12:13;103169.75;;;5.53
18161;BMP280;9205;52.032;4.314;2023-04-03T05:14:48;103169.38;;;5.43
18161;BMP280;9205;52.032;4.314;2023-04-03T05:17:16;103175.91;;;5.38
18161;BMP280;9205;52.032;4.314;2023-04-03T05:19:48;103168.50;;;5.42
18161;BMP280;9205;52.032;4.314;2023-04-03T05:22:17;103177.50;;;5.36
18161;BMP280;9205;52.032;4.314;2023-04-03T05:24:44;103177.59;;;5.38
18161;BMP280;9205;52.032;4.314;2023-04-03T05:27:12;103185.38;;;5.43
18161;BMP280;9205;52.032;4.314;2023-04-03T05:29:43;103180.09;;;5.38
18161;BMP280;9205;52.032;4.314;2023-04-03T05:32:14;103181.06;;;5.41
18161;BMP280;9205;52.032;4.314;2023-04-03T05:34:44;103180.31;;;5.43
18161;BMP280;9205;52.032;4.314;2023-04-03T05:37:11;103186.28;;;5.45
18161;BMP280;9205;52.032;4.314;2023-04-03T05:39:40;103180.28;;;5.42
18161;BMP280;9205;52.032;4.314;2023-04-03T05:42:08;103186.22;;;5.44
18161;BMP280;9205;52.032;4.314;2023-04-03T05:44:37;103187.94;;;5.45
18161;BMP280;9205;52.032;4.314;2023-04-03T05:47:05;103189.66;;;5.46
18161;BMP280;9205;52.032;4.314;2023-04-03T05:49:35;103187.69;;;5.38
18161;BMP280;9205;52.032;4.314;2023-04-03T05:52:11;103188.59;;;5.40
18161;BMP280;9205;52.032;4.314;2023-04-03T05:54:44;103195.25;;;5.38
18161;BMP280;9205;52.032;4.314;2023-04-03T05:57:18;103205.31;;;5.38
18161;BMP280;9205;52.032;4.314;2023-04-03T05:59:47;103208.00;;;5.42
18161;BMP280;9205;52.032;4.314;2023-04-03T06:02:19;103206.56;;;5.48
18161;BMP280;9205;52.032;4.314;2023-04-03T06:04:49;103198.91;;;5.45
18161;BMP280;9205;52.032;4.314;2023-04-03T06:07:19;103209.50;;;5.37
18161;BMP280;9205;52.032;4.314;2023-04-03T06:09:50;103210.38;;;5.38
18161;BMP280;9205;52.032;4.314;2023-04-03T06:12:18;103214.69;;;5.41
18161;BMP280;9205;52.032;4.314;2023-04-03T06:14:46;103212.19;;;5.41
18161;BMP280;9205;52.032;4.314;2023-04-03T06:17:14;103216.63;;;5.48
18161;BMP280;9205;52.032;4.314;2023-04-03T06:19:43;103210.88;;;5.51
18161;BMP280;9205;52.032;4.314;2023-04-03T06:22:13;103211.00;;;5.55
18161;BMP280;9205;52.032;4.314;2023-04-03T06:24:41;103219.44;;;5.56
18161;BMP280;9205;52.032;4.314;2023-04-03T06:27:10;103227.78;;;5.53
18161;BMP280;9205;52.032;4.314;2023-04-03T06:29:38;103239.59;;;5.54
18161;BMP280;9205;52.032;4.314;2023-04-03T06:32:05;103234.63;;;5.57
18161;BMP280;9205;52.032;4.314;2023-04-03T06:34:33;103228.81;;;5.60
18161;BMP280;9205;52.032;4.314;2023-04-03T06:37:01;103223.88;;;5.61
18161;BMP280;9205;52.032;4.314;2023-04-03T06:39:29;103228.19;;;5.65
18161;BMP280;9205;52.032;4.314;2023-04-03T06:41:57;103226.84;;;5.75
18161;BMP280;9205;52.032;4.314;2023-04-03T06:44:35;103226.00;;;5.74
18161;BMP280;9205;52.032;4.314;2023-04-03T06:47:03;103223.19;;;5.89
18161;BMP280;9205;52.032;4.314;2023-04-03T06:49:30;103218.41;;;5.96
18161;BMP280;9205;52.032;4.314;2023-04-03T06:51:58;103227.22;;;6.07
18161;BMP280;9205;52.032;4.314;2023-04-03T06:54:25;103223.13;;;6.11
18161;BMP280;9205;52.032;4.314;2023-04-03T06:56:53;103231.03;;;6.21
18161;BMP280;9205;52.032;4.314;2023-04-03T06:59:21;103228.88;;;6.31
18161;BMP280;9205;52.032;4.314;2023-04-03T07:01:48;103234.69;;;6.29
18161;BMP280;9205;52.032;4.314;2023-04-03T07:04:15;103240.72;;;6.34
18161;BMP280;9205;52.032;4.314;2023-04-03T07:06:43;103230.94;;;6.43
18161;BMP280;9205;52.032;4.314;2023-04-03T07:09:10;103230.28;;;6.48
18161;BMP280;9205;52.032;4.314;2023-04-03T07:11:38;103231.75;;;6.42
18161;BMP280;9205;52.032;4.314;2023-04-03T07:14:07;103231.81;;;6.43
18161;BMP280;9205;52.032;4.314;2023-04-03T07:16:34;103237.53;;;6.64
18161;BMP280;9205;52.032;4.314;2023-04-03T07:19:02;103241.22;;;6.74
18161;BMP280;9205;52.032;4.314;2023-04-03T07:21:30;103247.47;;;6.85
18161;BMP280;9205;52.032;4.314;2023-04-03T07:23:57;103246.56;;;6.83
18161;BMP280;9205;52.032;4.314;2023-04-03T07:26:24;103250.97;;;6.90
18161;BMP280;9205;52.032;4.314;2023-04-03T07:28:51;103258.25;;;6.79
18161;BMP280;9205;52.032;4.314;2023-04-03T07:31:20;103254.00;;;6.78
18161;BMP280;9205;52.032;4.314;2023-04-03T07:33:47;103254.84;;;6.79
18161;BMP280;9205;52.032;4.314;2023-04-03T07:36:18;103258.41;;;6.85
18161;BMP280;9205;52.032;4.314;2023-04-03T07:38:46;103261.19;;;6.93
18161;BMP280;9205;52.032;4.314;2023-04-03T07:41:16;103263.94;;;7.00
18161;BMP280;9205;52.032;4.314;2023-04-03T07:43:44;103263.09;;;6.99
18161;BMP280;9205;52.032;4.314;2023-04-03T07:46:12;103265.66;;;7.01
18161;BMP280;9205;52.032;4.314;2023-04-03T07:48:41;103276.84;;;7.07
18161;BMP280;9205;52.032;4.314;2023-04-03T07:51:09;103273.41;;;7.05
18161;BMP280;9205;52.032;4.314;2023-04-03T07:53:37;103274.09;;;7.01
18161;BMP280;9205;52.032;4.314;2023-04-03T07:56:04;103276.75;;;7.06
18161;BMP280;9205;52.032;4.314;2023-04-03T07:58:32;103271.16;;;7.14
18161;BMP280;9205;52.032;4.314;2023-04-03T08:00:59;103273.84;;;7.20
18161;BMP280;9205;52.032;4.314;2023-04-03T08:03:27;103284.44;;;7.35
18161;BMP280;9205;52.032;4.314;2023-04-03T08:06:06;103285.38;;;7.39
18161;BMP280;9205;52.032;4.314;2023-04-03T08:08:34;103282.03;;;7.40
18161;BMP280;9205;52.032;4.314;2023-04-03T08:11:02;103289.09;;;7.50
18161;BMP280;9205;52.032;4.314;2023-04-03T08:13:31;103281.69;;;7.57
18161;BMP280;9205;52.032;4.314;2023-04-03T08:16:09;103290.72;;;7.77
18161;BMP280;9205;52.032;4.314;2023-04-03T08:18:37;103290.94;;;7.84
18161;BMP280;9205;52.032;4.314;2023-04-03T08:21:11;103299.72;;;7.97
18161;BMP280;9205;52.032;4.314;2023-04-03T08:23:39;103297.19;;;7.97
18161;BMP280;9205;52.032;4.314;2023-04-03T08:26:10;103288.22;;;8.08
18161;BMP280;9205;52.032;4.314;2023-04-03T08:28:38;103290.63;;;8.03
18161;BMP280;9205;52.032;4.314;2023-04-03T08:31:09;103286.25;;;7.98
18161;BMP280;9205;52.032;4.314;2023-04-03T08:33:38;103283.69;;;7.96
18161;BMP280;9205;52.032;4.314;2023-04-03T08:36:16;103283.22;;;8.11
18161;BMP280;9205;52.032;4.314;2023-04-03T08:38:43;103285.44;;;8.28
18161;BMP280;9205;52.032;4.314;2023-04-03T08:41:16;103289.88;;;8.37
18161;BMP280;9205;52.032;4.314;2023-04-03T08:44:05;103278.22;;;8.43
18161;BMP280;9205;52.032;4.314;2023-04-03T08:46:52;103280.97;;;8.52
18161;BMP280;9205;52.032;4.314;2023-04-03T08:49:28;103284.44;;;8.56
18161;BMP280;9205;52.032;4.314;2023-04-03T08:52:04;103288.09;;;8.66
18161;BMP280;9205;52.032;4.314;2023-04-03T08:54:37;103287.34;;;8.70
18161;BMP280;9205;52.032;4.314;2023-04-03T08:57:11;103291.31;;;8.59
18161;BMP280;9205;52.032;4.314;2023-04-03T08:59:40;103286.31;;;8.62
18161;BMP280;9205;52.032;4.314;2023-04-03T09:02:26;103284.88;;;8.73
18161;BMP280;9205;52.032;4.314;2023-04-03T09:04:55;103276.47;;;8.74
18161;BMP280;9205;52.032;4.314;2023-04-03T09:07:33;103278.19;;;8.75
18161;BMP280;9205;52.032;4.314;2023-04-03T09:10:04;103282.53;;;8.81
18161;BMP280;9205;52.032;4.314;2023-04-03T09:12:37;103276.91;;;8.92
18161;BMP280;9205;52.032;4.314;2023-04-03T09:15:17;103284.91;;;9.10
18161;BMP280;9205;52.032;4.314;2023-04-03T09:17:58;103276.66;;;9.19
18161;BMP280;9205;52.032;4.314;2023-04-03T09:20:39;103283.47;;;9.21
18161;BMP280;9205;52.032;4.314;2023-04-03T09:23:22;103277.25;;;9.07
18161;BMP280;9205;52.032;4.314;2023-04-03T09:25:58;103276.38;;;9.07
18161;BMP280;9205;52.032;4.314;2023-04-03T09:28:32;103279.13;;;9.16
18161;BMP280;9205;52.032;4.314;2023-04-03T09:31:00;103278.63;;;9.32
18161;BMP280;9205;52.032;4.314;2023-04-03T09:33:30;103272.06;;;9.41
18161;BMP280;9205;52.032;4.314;2023-04-03T09:35:57;103262.84;;;9.44
18161;BMP280;9205;52.032;4.314;2023-04-03T09:38:26;103265.31;;;9.41
18161;BMP280;9205;52.032;4.314;2023-04-03T09:41:05;103257.69;;;9.40
18161;BMP280;9205;52.032;4.314;2023-04-03T09:43:35;103245.06;;;9.44
18161;BMP280;9205;52.032;4.314;2023-04-03T09:46:26;103261.59;;;9.66
18161;BMP280;9205;52.032;4.314;2023-04-03T09:48:57;103255.69;;;9.67
18161;BMP280;9205;52.032;4.314;2023-04-03T09:51:27;103254.97;;;9.72
18161;BMP280;9205;52.032;4.314;2023-04-03T09:53:56;103241.53;;;9.78
18161;BMP280;9205;52.032;4.314;2023-04-03T09:56:28;103241.56;;;9.81
18161;BMP280;9205;52.032;4.314;2023-04-03T09:59:14;103235.75;;;9.85
18161;BMP280;9205;52.032;4.314;2023-04-03T10:01:58;103248.38;;;9.83
18161;BMP280;9205;52.032;4.314;2023-04-03T10:04:39;103232.31;;;9.83
18161;BMP280;9205;52.032;4.314;2023-04-03T10:07:33;103233.22;;;9.85
18161;BMP280;9205;52.032;4.314;2023-04-03T10:10:18;103235.84;;;9.89
18161;BMP280;9205;52.032;4.314;2023-04-03T10:12:46;103229.13;;;9.94
18161;BMP280;9205;52.032;4.314;2023-04-03T10:15:16;103229.13;;;9.94
18161;BMP280;9205;52.032;4.314;2023-04-03T10:17:54;103236.06;;;10.01
18161;BMP280;9205;52.032;4.314;2023-04-03T10:20:33;103229.25;;;9.99
18161;BMP280;9205;52.032;4.314;2023-04-03T10:23:17;103227.72;;;10.07
18161;BMP280;9205;52.032;4.314;2023-04-03T10:26:01;103220.19;;;10.13
18161;BMP280;9205;52.032;4.314;2023-04-03T10:28:41;103220.34;;;10.21
18161;BMP280;9205;52.032;4.314;2023-04-03T10:31:21;103223.78;;;10.23
18161;BMP280;9205;52.032;4.314;2023-04-03T10:34:00;103221.25;;;10.23
18161;BMP280;9205;52.032;4.314;2023-04-03T10:36:38;103222.84;;;10.18
18161;BMP280;9205;52.032;4.314;2023-04-03T10:39:23;103224.44;;;10.13
18161;BMP280;9205;52.032;4.314;2023-04-03T10:42:07;103218.72;;;10.23
18161;BMP280;9205;52.032;4.314;2023-04-03T10:44:52;103225.53;;;10.27
18161;BMP280;9205;52.032;4.314;2023-04-03T10:47:32;103218.66;;;10.22
18161;BMP280;9205;52.032;4.314;2023-04-03T10:50:23;103213.72;;;10.29
18161;BMP280;9205;52.032;4.314;2023-04-03T10:52:57;103215.75;;;10.48
18161;BMP280;9205;52.032;4.314;2023-04-03T10:55:36;103221.88;;;10.62
18161;BMP280;9205;52.032;4.314;2023-04-03T10:58:14;103213.59;;;10.74
18161;BMP280;9205;52.032;4.314;2023-04-03T11:00:48;103204.31;;;10.77
18161;BMP280;9205;52.032;4.314;2023-04-03T11:03:29;103207.75;;;10.79
18161;BMP280;9205;52.032;4.314;2023-04-03T11:06:02;103195.41;;;11.07
18161;BMP280;9205;52.032;4.314;2023-04-03T11:08:38;103193.22;;;11.36
18161;BMP280;9205;52.032;4.314;2023-04-03T11:11:13;103178.97;;;11.50
18161;BMP280;9205;52.032;4.314;2023-04-03T11:13:49;103180.31;;;11.96
18161;BMP280;9205;52.032;4.314;2023-04-03T11:16:24;103181.72;;;12.59
18161;BMP280;9205;52.032;4.314;2023-04-03T11:18:59;103172.69;;;13.12
18161;BMP280;9205;52.032;4.314;2023-04-03T11:21:33;103174.63;;;14.10
18161;BMP280;9205;52.032;4.314;2023-04-03T11:24:05;103162.56;;;14.98
18161;BMP280;9205;52.032;4.314;2023-04-03T11:26:42;103157.03;;;15.82
18161;BMP280;9205;52.032;4.314;2023-04-03T11:29:18;103150.13;;;15.90
18161;BMP280;9205;52.032;4.314;2023-04-03T11:32:08;103146.00;;;15.69
18161;BMP280;9205;52.032;4.314;2023-04-03T11:34:40;103139.25;;;15.61
18161;BMP280;9205;52.032;4.314;2023-04-03T11:37:20;103145.41;;;15.26
18161;BMP280;9205;52.032;4.314;2023-04-03T11:39:56;103134.41;;;14.95
18161;BMP280;9205;52.032;4.314;2023-04-03T11:42:33;103147.31;;;14.67
18161;BMP280;9205;52.032;4.314;2023-04-03T11:45:50;103145.59;;;14.77
18161;BMP280;9205;52.032;4.314;2023-04-03T11:48:50;103138.84;;;14.35
18161;BMP280;9205;52.032;4.314;2023-04-03T11:51:45;103129.47;;;13.94
18161;BMP280;9205;52.032;4.314;2023-04-03T11:54:48;103124.28;;;13.48
18161;BMP280;9205;52.032;4.314;2023-04-03T11:58:03;103132.50;;;12.77
18161;BMP280;9205;52.032;4.314;2023-04-03T12:00:55;103124.63;;;12.38
18161;BMP280;9205;52.032;4.314;2023-04-03T12:04:07;103139.69;;;12.11
18161;BMP280;9205;52.032;4.314;2023-04-03T12:07:18;103133.66;;;12.00
18161;BMP280;9205;52.032;4.314;2023-04-03T12:10:17;103131.03;;;11.91
18161;BMP280;9205;52.032;4.314;2023-04-03T12:12:57;103122.59;;;11.98
18161;BMP280;9205;52.032;4.314;2023-04-03T12:15:54;103122.69;;;12.10
18161;BMP280;9205;52.032;4.314;2023-04-03T12:18:58;103116.81;;;12.17
18161;BMP280;9205;52.032;4.314;2023-04-03T12:24:52;103101.72;;;12.47
18161;BMP280;9205;52.032;4.314;2023-04-03T12:27:28;103104.25;;;12.44
18161;BMP280;9205;52.032;4.314;2023-04-03T12:30:21;103104.22;;;12.41
18161;BMP280;9205;52.032;4.314;2023-04-03T12:33:18;103094.78;;;12.30
18161;BMP280;9205;52.032;4.314;2023-04-03T12:36:04;103094.00;;;12.38
18161;BMP280;9205;52.032;4.314;2023-04-03T12:38:57;103083.94;;;12.56
18161;BMP280;9205;52.032;4.314;2023-04-03T12:41:38;103072.91;;;12.63
18161;BMP280;9205;52.032;4.314;2023-04-03T12:44:38;103084.00;;;12.72
18161;BMP280;9205;52.032;4.314;2023-04-03T12:47:23;103078.78;;;12.50
18161;BMP280;9205;52.032;4.314;2023-04-03T12:49:53;103077.06;;;12.46
18161;BMP280;9205;52.032;4.314;2023-04-03T12:52:39;103072.88;;;12.61
18161;BMP280;9205;52.032;4.314;2023-04-03T12:55:15;103077.25;;;12.79
18161;BMP280;9205;52.032;4.314;2023-04-03T12:57:43;103073.81;;;12.77
18161;BMP280;9205;52.032;4.314;2023-04-03T13:00:31;103070.53;;;12.99
18161;BMP280;9205;52.032;4.314;2023-04-03T13:03:01;103064.66;;;13.27
18161;BMP280;9205;52.032;4.314;2023-04-03T13:05:32;103074.81;;;13.07
18161;BMP280;9205;52.032;4.314;2023-04-03T13:08:04;103065.31;;;12.75
18161;BMP280;9205;52.032;4.314;2023-04-03T13:10:49;103067.06;;;12.88
18161;BMP280;9205;52.032;4.314;2023-04-03T13:13:17;103065.47;;;13.08
18161;BMP280;9205;52.032;4.314;2023-04-03T13:15:47;103061.25;;;13.38
18161;BMP280;9205;52.032;4.314;2023-04-03T13:18:29;103065.56;;;13.40
18161;BMP280;9205;52.032;4.314;2023-04-03T13:21:03;103052.75;;;13.23
18161;BMP280;9205;52.032;4.314;2023-04-03T13:23:34;103062.94;;;13.23
18161;BMP280;9205;52.032;4.314;2023-04-03T13:26:04;103062.94;;;13.18
18161;BMP280;9205;52.032;4.314;2023-04-03T13:28:34;103074.00;;;13.16
18161;BMP280;9205;52.032;4.314;2023-04-03T13:31:13;103062.91;;;13.14
18161;BMP280;9205;52.032;4.314;2023-04-03T13:33:56;103052.75;;;13.26
18161;BMP280;9205;52.032;4.314;2023-04-03T13:36:30;103048.50;;;13.35
18161;BMP280;9205;52.032;4.314;2023-04-03T13:39:02;103058.72;;;13.42
18161;BMP280;9205;52.032;4.314;2023-04-03T13:41:32;103052.75;;;13.49
18161;BMP280;9205;52.032;4.314;2023-04-03T13:44:26;103049.38;;;13.52
18161;BMP280;9205;52.032;4.314;2023-04-03T13:46:57;103051.94;;;13.47
18161;BMP280;9205;52.032;4.314;2023-04-03T13:49:32;103043.41;;;13.35
18161;BMP280;9205;52.032;4.314;2023-04-03T13:52:03;103045.94;;;13.26
18161;BMP280;9205;52.032;4.314;2023-04-03T13:54:35;103034.88;;;13.34
18161;BMP280;9205;52.032;4.314;2023-04-03T13:57:12;103032.34;;;13.40
18161;BMP280;9205;52.032;4.314;2023-04-03T13:59:40;103041.72;;;13.53
18161;BMP280;9205;52.032;4.314;2023-04-03T14:02:17;103031.50;;;13.83
18161;BMP280;9205;52.032;4.314;2023-04-03T14:04:52;103038.31;;;13.86
18161;BMP280;9205;52.032;4.314;2023-04-03T14:07:24;103039.16;;;13.68
18161;BMP280;9205;52.032;4.314;2023-04-03T14:09:52;103028.94;;;13.61
18161;BMP280;9205;52.032;4.314;2023-04-03T14:12:26;103019.59;;;13.64
18161;BMP280;9205;52.032;4.314;2023-04-03T14:14:55;103032.34;;;13.58
18161;BMP280;9205;52.032;4.314;2023-04-03T14:17:26;103016.19;;;13.71
18161;BMP280;9205;52.032;4.314;2023-04-03T14:19:55;103019.59;;;13.64
18161;BMP280;9205;52.032;4.314;2023-04-03T14:22:27;103009.34;;;13.52
18161;BMP280;9205;52.032;4.314;2023-04-03T14:24:56;103006.81;;;13.60
18161;BMP280;9205;52.032;4.314;2023-04-03T14:27:26;102993.16;;;13.65
18161;BMP280;9205;52.032;4.314;2023-04-03T14:29:57;102995.72;;;13.73
18161;BMP280;9205;52.032;4.314;2023-04-03T14:32:26;102997.44;;;13.69
18161;BMP280;9205;52.032;4.314;2023-04-03T14:34:54;102998.31;;;13.58
18161;BMP280;9205;52.032;4.314;2023-04-03T14:37:27;102988.09;;;13.49
18161;BMP280;9205;52.032;4.314;2023-04-03T14:39:58;102988.09;;;13.47
18161;BMP280;9205;52.032;4.314;2023-04-03T14:42:30;102984.66;;;13.57
18161;BMP280;9205;52.032;4.314;2023-04-03T14:44:58;102980.38;;;13.83
18161;BMP280;9205;52.032;4.314;2023-04-03T14:47:28;102992.31;;;13.71
18161;BMP280;9205;52.032;4.314;2023-04-03T14:49:57;102982.13;;;13.33
18161;BMP280;9205;52.032;4.314;2023-04-03T14:52:29;102980.41;;;13.19
18161;BMP280;9205;52.032;4.314;2023-04-03T14:54:57;102990.59;;;13.10
18161;BMP280;9205;52.032;4.314;2023-04-03T14:57:28;102983.75;;;12.93